Time;durP1;ratioP1;P1;durP2;ratioP2;P2;SDS_P1;SDS_P2;PMS_P1;PMS_P2;Temp;Humidity;BMP_temperature;BMP_pressure;BME280_temperature;BME280_humidity;BME280_pressure;Samples;Min_cycle;Max_cycle;Signal;HPM_P1;HPM_P2
2023/06/20 00:00:46;;;;;;;;;;;18.30;66.60;;;;;;5107850;27;19912;-72
2023/06/20 00:03:12;;;;;;;;;;;18.30;66.60;;;;;;5107499;28;19980;-72
2023/06/20 00:05:37;;;;;;;;;;;18.30;66.70;;;;;;5106355;28;20306;-72
2023/06/20 00:08:03;;;;;;;;;;;18.30;66.60;;;;;;5107700;28;19912;-72
2023/06/20 00:10:29;;;;;;;;;;;18.20;66.60;;;;;;5107740;28;19918;-72
2023/06/20 00:12:54;;;;;;;;;;;18.20;66.60;;;;;;5107742;28;19912;-72
2023/06/20 00:15:25;;;;;;;;;;;18.20;66.70;;;;;;5107497;28;20419;-72
2023/06/20 00:17:51;;;;;;;;;;;18.20;66.70;;;;;;5107450;28;20026;-72
2023/06/20 00:20:16;;;;;;;;;;;18.20;66.60;;;;;;5109340;28;20006;-72
2023/06/20 00:22:43;;;;;;;;;;;18.20;66.70;;;;;;5111577;28;20011;-72
2023/06/20 00:25:08;;;;;;;;;;;18.20;66.60;;;;;;5111331;28;19911;-72
2023/06/20 00:27:34;;;;;;;;;;;18.10;66.60;;;;;;5111282;28;19914;-72
2023/06/20 00:30:00;;;;;;;;;;;18.20;66.70;;;;;;5111243;28;19912;-72
2023/06/20 00:32:25;;;;;;;;;;;18.10;66.60;;;;;;5111260;28;20011;-72
2023/06/20 00:34:51;;;;;;;;;;;18.10;66.70;;;;;;5111078;28;19920;-72
2023/06/20 00:37:16;;;;;;;;;;;18.10;67.30;;;;;;5111126;28;19916;-72
2023/06/20 00:39:42;;;;;;;;;;;18.00;66.90;;;;;;5111075;28;19908;-72
2023/06/20 00:42:18;;;;;;;;;;;18.00;66.90;;;;;;5109813;28;19911;-72
2023/06/20 00:44:44;;;;;;;;;;;18.00;66.90;;;;;;5109666;28;20410;-72
2023/06/20 00:47:09;;;;;;;;;;;18.00;66.90;;;;;;5110828;28;19943;-72
2023/06/20 00:49:35;;;;;;;;;;;18.00;66.90;;;;;;5110734;28;19912;-72
2023/06/20 00:52:02;;;;;;;;;;;18.00;67.00;;;;;;5110741;28;19919;-72
2023/06/20 00:54:28;;;;;;;;;;;18.00;67.00;;;;;;5110700;28;19912;-72
2023/06/20 00:56:53;;;;;;;;;;;18.00;67.00;;;;;;5110561;28;19957;-72
2023/06/20 00:59:19;;;;;;;;;;;17.90;66.90;;;;;;5110607;28;19951;-72
2023/06/20 01:01:45;;;;;;;;;;;17.90;66.90;;;;;;5110675;28;19927;-72
2023/06/20 01:04:10;;;;;;;;;;;17.90;67.00;;;;;;5110454;28;20012;-72
2023/06/20 01:06:43;;;;;;;;;;;17.80;67.00;;;;;;5110484;28;20387;-72
2023/06/20 01:09:28;;;;;;;;;;;17.80;67.10;;;;;;5110481;28;19908;-72
2023/06/20 01:12:02;;;;;;;;;;;17.70;67.10;;;;;;5110030;27;19915;-72
2023/06/20 01:14:28;;;;;;;;;;;17.70;67.10;;;;;;5110341;28;19908;-72
2023/06/20 01:17:01;;;;;;;;;;;17.70;67.10;;;;;;5108907;28;19934;-72
2023/06/20 01:19:47;;;;;;;;;;;17.70;67.10;;;;;;5110345;28;19912;-72
2023/06/20 01:22:31;;;;;;;;;;;17.70;67.10;;;;;;5110348;28;19907;-72
2023/06/20 01:24:58;;;;;;;;;;;17.70;67.10;;;;;;5110006;28;20367;-72
2023/06/20 01:27:28;;;;;;;;;;;17.70;66.90;;;;;;5110180;28;19907;-72
2023/06/20 01:30:01;;;;;;;;;;;17.80;66.80;;;;;;5110250;28;19908;-72
2023/06/20 01:32:28;;;;;;;;;;;17.70;66.70;;;;;;5110033;28;19988;-72
2023/06/20 01:35:08;;;;;;;;;;;17.70;66.70;;;;;;5109894;28;19930;-72
2023/06/20 01:37:35;;;;;;;;;;;17.70;66.80;;;;;;5110178;28;20272;-72
2023/06/20 01:40:02;;;;;;;;;;;17.60;66.70;;;;;;5109807;28;19908;-72
2023/06/20 01:42:29;;;;;;;;;;;17.60;66.70;;;;;;5109877;28;20332;-72
2023/06/20 01:44:57;;;;;;;;;;;17.50;66.70;;;;;;5110172;28;19912;-72
2023/06/20 01:47:23;;;;;;;;;;;17.50;66.70;;;;;;5108411;28;19951;-72
2023/06/20 01:49:51;;;;;;;;;;;17.40;66.80;;;;;;5109854;28;20399;-72
2023/06/20 01:52:17;;;;;;;;;;;17.40;67.30;;;;;;5109613;28;19911;-72
2023/06/20 01:54:46;;;;;;;;;;;17.40;66.90;;;;;;5109867;28;19911;-72
2023/06/20 01:57:13;;;;;;;;;;;17.40;66.90;;;;;;5109450;28;19920;-72
2023/06/20 01:59:39;;;;;;;;;;;17.40;66.90;;;;;;5109564;28;19911;-72
2023/06/20 02:02:05;;;;;;;;;;;17.40;66.90;;;;;;5109312;28;19908;-72
2023/06/20 02:04:32;;;;;;;;;;;17.40;66.90;;;;;;5109379;28;21598;-72
2023/06/20 02:06:58;;;;;;;;;;;17.40;66.90;;;;;;5109362;27;19908;-72
2023/06/20 02:09:24;;;;;;;;;;;17.40;66.90;;;;;;5109309;28;19995;-72
2023/06/20 02:11:50;;;;;;;;;;;17.40;66.80;;;;;;5109421;28;20260;-72
2023/06/20 02:14:16;;;;;;;;;;;17.30;66.80;;;;;;5109170;28;19934;-72
2023/06/20 02:16:42;;;;;;;;;;;17.30;66.90;;;;;;5107804;28;19912;-72
2023/06/20 02:19:08;;;;;;;;;;;17.30;66.90;;;;;;5109105;28;19912;-72
2023/06/20 02:21:37;;;;;;;;;;;17.30;66.90;;;;;;5108997;28;19912;-72
2023/06/20 02:24:04;;;;;;;;;;;17.20;66.80;;;;;;5109150;28;19907;-72
2023/06/20 02:26:34;;;;;;;;;;;17.30;66.90;;;;;;5109003;28;19908;-72
2023/06/20 02:29:03;;;;;;;;;;;17.20;66.90;;;;;;5109142;28;20010;-72
2023/06/20 02:31:35;;;;;;;;;;;17.20;67.00;;;;;;5109148;28;20339;-72
2023/06/20 02:34:02;;;;;;;;;;;17.20;67.10;;;;;;5109094;28;19915;-72
2023/06/20 02:36:28;;;;;;;;;;;17.20;67.20;;;;;;5108824;28;20021;-72
2023/06/20 02:38:55;;;;;;;;;;;17.20;67.20;;;;;;5108647;28;19959;-72
2023/06/20 02:41:21;;;;;;;;;;;17.10;67.10;;;;;;5108241;28;19908;-72
2023/06/20 02:43:46;;;;;;;;;;;17.10;67.20;;;;;;5107363;28;20272;-72
2023/06/20 02:46:12;;;;;;;;;;;17.00;67.30;;;;;;5107307;28;19919;-72
2023/06/20 02:48:37;;;;;;;;;;;17.00;67.30;;;;;;5108765;28;20372;-72
2023/06/20 02:51:03;;;;;;;;;;;17.00;67.40;;;;;;5108499;28;19918;-72
2023/06/20 02:53:44;;;;;;;;;;;17.00;67.40;;;;;;5108551;28;19912;-72
2023/06/20 02:56:12;;;;;;;;;;;17.00;67.50;;;;;;5108603;28;19912;-72
2023/06/20 02:58:40;;;;;;;;;;;16.90;67.40;;;;;;5108391;28;20409;-72
2023/06/20 03:01:06;;;;;;;;;;;16.90;67.50;;;;;;5108520;28;20296;-72
2023/06/20 03:03:34;;;;;;;;;;;16.80;67.50;;;;;;5108360;28;19931;-72
2023/06/20 03:06:00;;;;;;;;;;;16.80;67.60;;;;;;5108331;28;19917;-72
2023/06/20 03:08:27;;;;;;;;;;;16.70;67.60;;;;;;5108406;28;19912;-72
2023/06/20 03:10:53;;;;;;;;;;;16.70;67.70;;;;;;5108390;28;19967;-72
2023/06/20 03:13:20;;;;;;;;;;;16.70;67.60;;;;;;5108386;28;20351;-72
2023/06/20 03:15:45;;;;;;;;;;;16.60;67.60;;;;;;5108240;28;19916;-72
2023/06/20 03:18:12;;;;;;;;;;;16.60;67.70;;;;;;5108361;28;19927;-72
2023/06/20 03:20:37;;;;;;;;;;;16.50;67.70;;;;;;5108312;28;19937;-72
2023/06/20 03:23:03;;;;;;;;;;;16.50;67.70;;;;;;5108365;28;19915;-72
2023/06/20 03:25:28;;;;;;;;;;;16.50;67.80;;;;;;5108200;28;19908;-72
2023/06/20 03:27:54;;;;;;;;;;;16.40;67.80;;;;;;5108266;28;20397;-72
2023/06/20 03:30:20;;;;;;;;;;;16.50;67.90;;;;;;5108256;28;19916;-72
2023/06/20 03:32:45;;;;;;;;;;;16.40;67.80;;;;;;5108264;28;19916;-72
2023/06/20 03:35:11;;;;;;;;;;;16.40;67.90;;;;;;5108069;28;20023;-72
2023/06/20 03:37:36;;;;;;;;;;;16.40;68.00;;;;;;5106888;28;19920;-72
2023/06/20 03:40:03;;;;;;;;;;;16.40;67.90;;;;;;5108156;28;19914;-72
2023/06/20 03:42:28;;;;;;;;;;;16.50;67.90;;;;;;5108195;28;19911;-72
2023/06/20 03:44:54;;;;;;;;;;;16.70;67.90;;;;;;5107965;28;19914;-72
2023/06/20 03:47:19;;;;;;;;;;;16.70;67.70;;;;;;5107960;28;19915;-72
2023/06/20 03:49:45;;;;;;;;;;;16.90;67.70;;;;;;5107858;28;19934;-72
2023/06/20 03:52:10;;;;;;;;;;;16.90;67.60;;;;;;5107923;28;19918;-72
2023/06/20 03:54:37;;;;;;;;;;;17.00;67.50;;;;;;5111423;28;19915;-72
2023/06/20 03:57:03;;;;;;;;;;;17.00;67.40;;;;;;5111925;28;19929;-72
2023/06/20 03:59:28;;;;;;;;;;;17.00;67.30;;;;;;5111680;28;19912;-72
2023/06/20 04:01:54;;;;;;;;;;;17.00;67.30;;;;;;5111558;28;19908;-72
2023/06/20 04:04:19;;;;;;;;;;;17.00;67.30;;;;;;5111637;28;20010;-72
2023/06/20 04:06:49;;;;;;;;;;;17.00;67.40;;;;;;5111674;28;20309;-72
2023/06/20 04:09:18;;;;;;;;;;;17.00;67.90;;;;;;5111688;28;20329;-72
2023/06/20 04:11:44;;;;;;;;;;;17.00;67.40;;;;;;5111558;28;20376;-72
2023/06/20 04:14:09;;;;;;;;;;;17.00;67.30;;;;;;5111589;28;19912;-72
2023/06/20 04:16:35;;;;;;;;;;;17.10;67.30;;;;;;5111319;28;19916;-72
2023/06/20 04:19:00;;;;;;;;;;;17.20;67.30;;;;;;5111341;28;19908;-72
2023/06/20 04:21:26;;;;;;;;;;;17.20;67.20;;;;;;5111495;28;19914;-72
2023/06/20 04:23:52;;;;;;;;;;;17.30;67.20;;;;;;5111388;28;20388;-72
2023/06/20 04:26:17;;;;;;;;;;;17.30;67.20;;;;;;5111169;28;20010;-72
2023/06/20 04:28:43;;;;;;;;;;;17.40;67.20;;;;;;5111403;28;20282;-72
2023/06/20 04:31:08;;;;;;;;;;;17.40;67.10;;;;;;5111294;28;19967;-72
2023/06/20 04:33:34;;;;;;;;;;;17.40;67.20;;;;;;5111229;28;20237;-72
2023/06/20 04:36:00;;;;;;;;;;;17.40;67.20;;;;;;5111059;28;19912;-72
2023/06/20 04:38:25;;;;;;;;;;;17.50;67.20;;;;;;5111110;28;20010;-72
2023/06/20 04:40:51;;;;;;;;;;;17.50;67.30;;;;;;5111069;28;20014;-72
2023/06/20 04:43:16;;;;;;;;;;;17.40;67.40;;;;;;5109882;28;19919;-72
2023/06/20 04:45:42;;;;;;;;;;;17.40;67.40;;;;;;5110819;28;19919;-72
2023/06/20 04:48:07;;;;;;;;;;;17.40;67.40;;;;;;5110859;28;19912;-72
2023/06/20 04:50:33;;;;;;;;;;;17.30;67.50;;;;;;5111275;28;19927;-72
2023/06/20 04:52:59;;;;;;;;;;;17.30;67.70;;;;;;5109515;28;20409;-72
2023/06/20 04:55:24;;;;;;;;;;;17.20;67.80;;;;;;5110628;28;20372;-72
2023/06/20 04:57:50;;;;;;;;;;;17.20;67.90;;;;;;5110630;28;20291;-72
2023/06/20 05:00:17;;;;;;;;;;;17.20;68.00;;;;;;5110477;28;19908;-72
2023/06/20 05:02:44;;;;;;;;;;;17.30;68.00;;;;;;5110476;28;19923;-72
2023/06/20 05:05:10;;;;;;;;;;;17.30;67.90;;;;;;5109940;27;19919;-72
2023/06/20 05:07:36;;;;;;;;;;;17.40;67.80;;;;;;5110474;28;19916;-72
2023/06/20 05:10:01;;;;;;;;;;;17.40;67.80;;;;;;5110500;28;19912;-72
2023/06/20 05:12:27;;;;;;;;;;;17.40;67.80;;;;;;5110238;28;19915;-72
2023/06/20 05:14:52;;;;;;;;;;;17.40;67.80;;;;;;5109862;28;19907;-72
2023/06/20 05:17:18;;;;;;;;;;;17.40;67.90;;;;;;5109820;28;19920;-72
2023/06/20 05:19:43;;;;;;;;;;;17.40;67.90;;;;;;5110279;28;20402;-72
2023/06/20 05:22:09;;;;;;;;;;;17.40;68.00;;;;;;5110232;28;19919;-72
2023/06/20 05:24:34;;;;;;;;;;;17.40;68.00;;;;;;5110095;28;19912;-72
2023/06/20 05:27:00;;;;;;;;;;;17.40;68.00;;;;;;5110234;28;19914;-72
2023/06/20 05:29:26;;;;;;;;;;;17.40;68.00;;;;;;5109902;28;19912;-72
2023/06/20 05:31:51;;;;;;;;;;;17.50;68.00;;;;;;5109617;28;19920;-72
2023/06/20 05:34:17;;;;;;;;;;;17.60;68.00;;;;;;5110354;28;19912;-72
2023/06/20 05:36:42;;;;;;;;;;;17.80;68.40;;;;;;5109985;28;19946;-72
2023/06/20 05:39:09;;;;;;;;;;;18.00;67.90;;;;;;5109751;28;20279;-72
2023/06/20 05:41:35;;;;;;;;;;;18.10;67.70;;;;;;5109827;28;19919;-72
2023/06/20 05:44:01;;;;;;;;;;;18.20;67.70;;;;;;5108534;28;19942;-72
2023/06/20 05:46:27;;;;;;;;;;;18.40;67.80;;;;;;5109501;28;19907;-72
2023/06/20 05:48:52;;;;;;;;;;;18.50;67.70;;;;;;5109474;28;19911;-72
2023/06/20 05:51:18;;;;;;;;;;;18.80;68.20;;;;;;5109369;28;20318;-72
2023/06/20 05:53:43;;;;;;;;;;;19.00;67.50;;;;;;5109253;28;19918;-72
2023/06/20 05:56:09;;;;;;;;;;;19.20;67.40;;;;;;5109316;28;19957;-72
2023/06/20 05:58:36;;;;;;;;;;;19.40;67.30;;;;;;5108999;28;19964;-72
2023/06/20 06:01:03;;;;;;;;;;;19.50;67.20;;;;;;5109325;28;19912;-72
2023/06/20 06:03:29;;;;;;;;;;;19.60;67.30;;;;;;5108974;28;19928;-72
2023/06/20 06:05:55;;;;;;;;;;;19.90;67.60;;;;;;5109347;28;20372;-72
2023/06/20 06:08:21;;;;;;;;;;;20.50;67.60;;;;;;5109061;28;19912;-72
2023/06/20 06:10:46;;;;;;;;;;;21.20;67.30;;;;;;5107651;28;19961;-73
2023/06/20 06:13:12;;;;;;;;;;;21.90;66.50;;;;;;5109129;28;19938;-72
2023/06/20 06:15:37;;;;;;;;;;;22.00;65.90;;;;;;5108829;28;19920;-72
2023/06/20 06:18:03;;;;;;;;;;;21.90;65.90;;;;;;5108054;28;20281;-72
2023/06/20 06:20:29;;;;;;;;;;;21.60;66.10;;;;;;5108684;28;20368;-72
2023/06/20 06:22:55;;;;;;;;;;;21.30;66.40;;;;;;5107485;28;19912;-73
2023/06/20 06:25:20;;;;;;;;;;;21.10;66.70;;;;;;5108923;28;19908;-72
2023/06/20 06:27:46;;;;;;;;;;;20.80;66.90;;;;;;5108845;28;19912;-72
2023/06/20 06:30:14;;;;;;;;;;;20.70;67.10;;;;;;5108564;28;20015;-72
2023/06/20 06:32:40;;;;;;;;;;;20.70;67.30;;;;;;5107213;28;20295;-72
2023/06/20 06:35:06;;;;;;;;;;;20.60;67.40;;;;;;5108282;28;19912;-72
2023/06/20 06:37:32;;;;;;;;;;;20.60;67.50;;;;;;5108558;28;20435;-72
2023/06/20 06:39:58;;;;;;;;;;;20.60;67.60;;;;;;5108309;28;19919;-72
2023/06/20 06:42:24;;;;;;;;;;;20.70;67.70;;;;;;5108992;28;19923;-72
2023/06/20 06:44:50;;;;;;;;;;;20.80;67.70;;;;;;5108497;28;19908;-72
2023/06/20 06:47:15;;;;;;;;;;;20.90;67.60;;;;;;5109286;28;20368;-72
2023/06/20 06:49:41;;;;;;;;;;;21.10;67.60;;;;;;5107412;28;19981;-72
2023/06/20 06:52:08;;;;;;;;;;;21.70;67.70;;;;;;5108279;28;20282;-72
2023/06/20 06:54:33;;;;;;;;;;;22.30;67.10;;;;;;5107963;28;19991;-72
2023/06/20 06:56:59;;;;;;;;;;;22.40;66.70;;;;;;5107792;28;19992;-72
2023/06/20 06:59:25;;;;;;;;;;;22.40;66.80;;;;;;5107862;28;19919;-72
2023/06/20 07:01:51;;;;;;;;;;;22.40;66.90;;;;;;5108269;28;19919;-72
2023/06/20 07:04:17;;;;;;;;;;;22.50;67.00;;;;;;5107826;28;19924;-72
2023/06/20 07:06:42;;;;;;;;;;;23.10;67.60;;;;;;5108269;28;20394;-71
2023/06/20 07:09:08;;;;;;;;;;;24.10;67.10;;;;;;5108259;28;19915;-71
2023/06/20 07:11:34;;;;;;;;;;;24.70;66.40;;;;;;5106687;28;19908;-71
2023/06/20 07:13:59;;;;;;;;;;;24.80;66.00;;;;;;5107966;28;19915;-70
2023/06/20 07:16:31;;;;;;;;;;;24.80;65.70;;;;;;5108329;28;19922;-71
2023/06/20 07:18:57;;;;;;;;;;;24.70;65.80;;;;;;5107933;28;19927;-71
2023/06/20 07:21:23;;;;;;;;;;;24.30;66.00;;;;;;5107829;28;20004;-71
2023/06/20 07:23:48;;;;;;;;;;;23.80;66.50;;;;;;5107792;28;19958;-70
2023/06/20 07:26:14;;;;;;;;;;;23.70;66.70;;;;;;5107648;28;19918;-71
2023/06/20 07:28:40;;;;;;;;;;;23.60;66.80;;;;;;5110058;28;19912;-71
2023/06/20 07:31:05;;;;;;;;;;;23.70;67.10;;;;;;5112052;28;19948;-71
2023/06/20 07:33:31;;;;;;;;;;;23.80;67.10;;;;;;5111871;28;19922;-71
2023/06/20 07:35:58;;;;;;;;;;;24.10;67.10;;;;;;5111556;28;19916;-71
2023/06/20 07:38:23;;;;;;;;;;;24.50;66.80;;;;;;5111749;28;19915;-71
2023/06/20 07:40:49;;;;;;;;;;;24.80;66.60;;;;;;5111423;28;19972;-70
2023/06/20 07:43:15;;;;;;;;;;;24.80;66.80;;;;;;5111812;28;20006;-71
2023/06/20 07:45:40;;;;;;;;;;;24.70;66.30;;;;;;5111733;28;19911;-71
2023/06/20 07:48:06;;;;;;;;;;;24.50;66.40;;;;;;5111698;28;19916;-70
2023/06/20 07:50:32;;;;;;;;;;;24.30;66.60;;;;;;5111593;28;19916;-70
2023/06/20 07:52:57;;;;;;;;;;;24.30;66.70;;;;;;5111186;28;19956;-70
2023/06/20 07:55:23;;;;;;;;;;;24.40;66.50;;;;;;5110928;28;19912;-71
2023/06/20 07:57:49;;;;;;;;;;;24.40;67.10;;;;;;5110211;28;20281;-71
2023/06/20 08:00:14;;;;;;;;;;;24.40;66.60;;;;;;5099290;28;19916;-69
2023/06/20 08:02:40;;;;;;;;;;;24.40;66.90;;;;;;5100740;28;20025;-71
2023/06/20 08:05:08;;;;;;;;;;;25.50;67.80;;;;;;5101249;28;19912;-71
2023/06/20 08:07:35;;;;;;;;;;;26.60;66.90;;;;;;5101228;28;19957;-71
2023/06/20 08:10:02;;;;;;;;;;;27.10;65.90;;;;;;5099649;28;19976;-71
2023/06/20 08:12:28;;;;;;;;;;;27.00;65.80;;;;;;5102741;28;20037;-71
2023/06/20 08:14:53;;;;;;;;;;;27.00;65.70;;;;;;5100406;28;19991;-71
2023/06/20 08:17:19;;;;;;;;;;;26.70;65.60;;;;;;5099117;28;19916;-71
2023/06/20 08:19:44;;;;;;;;;;;26.60;66.10;;;;;;5100507;28;19916;-71
2023/06/20 08:22:10;;;;;;;;;;;26.30;66.00;;;;;;5105919;28;20393;-71
2023/06/20 08:24:36;;;;;;;;;;;26.00;66.10;;;;;;5100555;28;19944;-70
2023/06/20 08:27:03;;;;;;;;;;;25.80;66.50;;;;;;5098454;28;19917;-71
2023/06/20 08:29:29;;;;;;;;;;;25.80;66.90;;;;;;5097383;28;19932;-71
2023/06/20 08:31:54;;;;;;;;;;;26.00;67.10;;;;;;5105136;28;19920;-71
2023/06/20 08:34:20;;;;;;;;;;;26.20;67.20;;;;;;5098601;27;19916;-70
2023/06/20 08:36:46;;;;;;;;;;;26.50;67.10;;;;;;5100320;28;19915;-71
2023/06/20 08:39:11;;;;;;;;;;;26.90;67.70;;;;;;5100024;28;20371;-71
2023/06/20 08:41:37;;;;;;;;;;;27.50;67.60;;;;;;5097739;28;19961;-71
2023/06/20 08:44:03;;;;;;;;;;;27.70;67.10;;;;;;5100429;28;19919;-72
2023/06/20 08:46:31;;;;;;;;;;;27.70;66.70;;;;;;5099068;28;19916;-71
2023/06/20 08:48:57;;;;;;;;;;;27.60;66.80;;;;;;5098617;28;20325;-71
2023/06/20 08:51:25;;;;;;;;;;;27.40;66.90;;;;;;5099963;28;19908;-71
2023/06/20 08:53:53;;;;;;;;;;;27.40;67.10;;;;;;5097349;28;20134;-71
2023/06/20 08:56:19;;;;;;;;;;;27.60;67.30;;;;;;5100363;28;19972;-71
2023/06/20 08:58:45;;;;;;;;;;;27.60;67.10;;;;;;5104449;28;20264;-71
2023/06/20 09:01:10;;;;;;;;;;;27.50;67.40;;;;;;5109744;28;19912;-71
2023/06/20 09:03:36;;;;;;;;;;;28.10;68.60;;;;;;5109796;28;19928;-71
2023/06/20 09:06:02;;;;;;;;;;;29.80;69.50;;;;;;5110825;28;19912;-72
2023/06/20 09:08:37;;;;;;;;;;;31.70;69.60;;;;;;5110897;27;19912;-71
2023/06/20 09:11:10;;;;;;;;;;;33.40;69.00;;;;;;5109053;28;20006;-71
2023/06/20 09:13:36;;;;;;;;;;;33.70;67.10;;;;;;5103672;28;19912;-71
2023/06/20 09:16:06;;;;;;;;;;;33.00;66.40;;;;;;5093045;28;19920;-71
2023/06/20 09:18:34;;;;;;;;;;;32.10;66.20;;;;;;5090305;28;19922;-71
2023/06/20 09:21:00;;;;;;;;;;;31.00;66.30;;;;;;5093948;28;19923;-71
2023/06/20 09:23:27;;;;;;;;;;;30.10;67.40;;;;;;5099611;28;19908;-71
2023/06/20 09:25:53;;;;;;;;;;;29.90;68.40;;;;;;5103719;28;19927;-71
2023/06/20 09:28:18;;;;;;;;;;;30.00;68.70;;;;;;5110629;28;19972;-71
2023/06/20 09:30:47;;;;;;;;;;;29.80;68.10;;;;;;5107529;28;20007;-71
2023/06/20 09:33:13;;;;;;;;;;;29.20;67.40;;;;;;5100703;28;19919;-71
2023/06/20 09:35:39;;;;;;;;;;;28.40;67.10;;;;;;5098274;28;19998;-70
2023/06/20 09:38:05;;;;;;;;;;;27.70;67.30;;;;;;5099520;28;19946;-70
2023/06/20 09:40:31;;;;;;;;;;;26.90;67.30;;;;;;5099514;28;19919;-69
2023/06/20 09:42:57;;;;;;;;;;;26.20;67.40;;;;;;5100811;28;20331;-69
2023/06/20 09:45:22;;;;;;;;;;;25.90;68.30;;;;;;5100326;28;19943;-70
2023/06/20 09:47:48;;;;;;;;;;;26.60;69.90;;;;;;5099307;28;19959;-70
2023/06/20 09:50:18;;;;;;;;;;;27.90;70.00;;;;;;5100475;28;19912;-70
2023/06/20 09:52:53;;;;;;;;;;;29.00;69.30;;;;;;5100548;28;19922;-70
2023/06/20 09:55:20;;;;;;;;;;;29.50;68.70;;;;;;5101144;28;19908;-70
2023/06/20 09:57:49;;;;;;;;;;;29.60;68.10;;;;;;5100143;28;19912;-70
2023/06/20 10:00:16;;;;;;;;;;;29.60;68.30;;;;;;5101277;28;19953;-70
2023/06/20 10:02:43;;;;;;;;;;;30.30;69.30;;;;;;5097411;28;19924;-70
2023/06/20 10:05:09;;;;;;;;;;;30.90;68.50;;;;;;5102768;28;19923;-70
2023/06/20 10:07:37;;;;;;;;;;;31.00;68.10;;;;;;5098240;27;20235;-71
2023/06/20 10:10:03;;;;;;;;;;;31.50;68.60;;;;;;5099186;28;20314;-71
2023/06/20 10:12:29;;;;;;;;;;;32.40;69.00;;;;;;5099136;28;19919;-72
2023/06/20 10:14:55;;;;;;;;;;;33.30;68.90;;;;;;5098232;27;20068;-71
2023/06/20 10:17:32;;;;;;;;;;;33.90;68.70;;;;;;5099850;28;19916;-71
2023/06/20 10:19:59;;;;;;;;;;;34.30;68.90;;;;;;5099951;28;19912;-70
2023/06/20 10:22:31;;;;;;;;;;;35.00;69.40;;;;;;5098539;28;20022;-70
2023/06/20 10:24:57;;;;;;;;;;;35.00;68.90;;;;;;5097770;27;19908;-71
2023/06/20 10:27:23;;;;;;;;;;;34.30;68.80;;;;;;5099414;28;20343;-71
2023/06/20 10:29:51;;;;;;;;;;;33.70;69.20;;;;;;5099936;28;20288;-71
2023/06/20 10:32:16;;;;;;;;;;;33.80;69.70;;;;;;5100574;28;20326;-71
2023/06/20 10:34:42;;;;;;;;;;;33.70;69.20;;;;;;5100742;28;19912;-72
2023/06/20 10:37:17;;;;;;;;;;;33.60;69.20;;;;;;5099030;28;19916;-72
2023/06/20 10:39:56;;;;;;;;;;;33.10;69.10;;;;;;5098434;28;20355;-72
2023/06/20 10:42:31;;;;;;;;;;;33.40;70.50;;;;;;5097615;28;19919;-72
2023/06/20 10:45:16;;;;;;;;;;;34.00;69.90;;;;;;5100151;28;19960;-72
2023/06/20 10:47:41;;;;;;;;;;;34.00;69.20;;;;;;5097382;28;19973;-69
2023/06/20 10:50:07;;;;;;;;;;;34.10;69.40;;;;;;5100277;28;20360;-71
2023/06/20 10:52:35;;;;;;;;;;;33.90;68.80;;;;;;5096353;28;20343;-70
2023/06/20 10:55:01;;;;;;;;;;;34.30;69.70;;;;;;5097139;28;19916;-72
2023/06/20 10:57:28;;;;;;;;;;;35.10;69.90;;;;;;5097028;28;19922;-71
2023/06/20 10:59:53;;;;;;;;;;;35.10;69.20;;;;;;5098731;28;20319;-71
2023/06/20 11:02:19;;;;;;;;;;;34.80;69.50;;;;;;5096502;28;19956;-71
2023/06/20 11:04:47;;;;;;;;;;;34.00;69.10;;;;;;5098470;28;19958;-71
2023/06/20 11:07:13;;;;;;;;;;;33.70;70.50;;;;;;5096429;28;20337;-71
2023/06/20 11:09:39;;;;;;;;;;;34.20;71.40;;;;;;5098487;28;19912;-72
2023/06/20 11:12:07;;;;;;;;;;;34.60;71.30;;;;;;5096738;28;20003;-71
2023/06/20 11:14:33;;;;;;;;;;;34.60;71.00;;;;;;5094062;28;19912;-71
2023/06/20 11:16:58;;;;;;;;;;;34.30;70.30;;;;;;5097273;28;19919;-71
2023/06/20 11:19:27;;;;;;;;;;;33.80;69.80;;;;;;5096368;28;20412;-71
2023/06/20 11:21:53;;;;;;;;;;;33.30;69.70;;;;;;5095102;28;20286;-70
2023/06/20 11:24:19;;;;;;;;;;;32.80;69.60;;;;;;5099229;28;19995;-71
2023/06/20 11:26:45;;;;;;;;;;;32.60;70.00;;;;;;5097452;28;19983;-71
2023/06/20 11:29:10;;;;;;;;;;;32.70;70.10;;;;;;5097377;28;20008;-70
2023/06/20 11:31:36;;;;;;;;;;;32.80;70.40;;;;;;5095813;28;19916;-70
2023/06/20 11:34:02;;;;;;;;;;;33.70;70.70;;;;;;5094289;28;19915;-70
2023/06/20 11:36:27;;;;;;;;;;;34.20;69.60;;;;;;5099394;28;20698;-70
2023/06/20 11:38:53;;;;;;;;;;;34.00;68.80;;;;;;5093814;28;19964;-71
2023/06/20 11:41:28;;;;;;;;;;;33.50;68.40;;;;;;5099209;28;20279;-70
2023/06/20 11:43:54;;;;;;;;;;;32.80;68.20;;;;;;5096772;28;20324;-70
2023/06/20 11:46:19;;;;;;;;;;;31.90;68.30;;;;;;5099541;28;19917;-69
2023/06/20 11:48:49;;;;;;;;;;;30.90;67.60;;;;;;5102593;28;20292;-69
2023/06/20 11:51:15;;;;;;;;;;;29.50;66.60;;;;;;5096494;28;19934;-69
2023/06/20 11:53:41;;;;;;;;;;;28.00;66.70;;;;;;5099304;28;19993;-69
2023/06/20 11:56:08;;;;;;;;;;;26.90;67.10;;;;;;5099772;28;19908;-69
2023/06/20 11:58:38;;;;;;;;;;;25.70;67.20;;;;;;5097272;28;19916;-70
2023/06/20 12:01:05;;;;;;;;;;;24.80;67.90;;;;;;5097040;28;19961;-69
2023/06/20 12:03:31;;;;;;;;;;;24.20;69.20;;;;;;5099563;28;19956;-70
2023/06/20 12:05:57;;;;;;;;;;;23.90;69.40;;;;;;5099427;28;19974;-69
2023/06/20 12:08:23;;;;;;;;;;;24.00;70.10;;;;;;5095910;28;20287;-69
2023/06/20 12:10:59;;;;;;;;;;;24.40;70.40;;;;;;5097233;28;19918;-70
2023/06/20 12:13:25;;;;;;;;;;;24.70;70.30;;;;;;5099716;28;19912;-70
2023/06/20 12:15:51;;;;;;;;;;;25.60;71.40;;;;;;5099544;28;19981;-71
2023/06/20 12:18:17;;;;;;;;;;;26.60;71.50;;;;;;5102035;28;19990;-70
2023/06/20 12:20:45;;;;;;;;;;;27.40;71.20;;;;;;5099576;28;19951;-70
2023/06/20 12:23:13;;;;;;;;;;;28.10;71.00;;;;;;5102182;28;19912;-69
2023/06/20 12:25:39;;;;;;;;;;;28.60;71.40;;;;;;5102223;28;19979;-69
2023/06/20 12:28:05;;;;;;;;;;;29.40;71.70;;;;;;5100380;28;19943;-70
2023/06/20 12:30:31;;;;;;;;;;;30.20;71.60;;;;;;5100417;28;19912;-70
2023/06/20 12:33:00;;;;;;;;;;;30.80;71.40;;;;;;5099983;28;20647;-69
2023/06/20 12:35:28;;;;;;;;;;;31.20;71.50;;;;;;5099870;28;19908;-71
2023/06/20 12:37:54;;;;;;;;;;;31.50;71.40;;;;;;5099914;28;19919;-71
2023/06/20 12:40:19;;;;;;;;;;;31.40;71.40;;;;;;5099504;27;19911;-71
2023/06/20 12:42:45;;;;;;;;;;;31.30;71.40;;;;;;5106460;28;20003;-73
2023/06/20 12:45:11;;;;;;;;;;;31.40;71.50;;;;;;5098080;28;19919;-69
2023/06/20 12:47:37;;;;;;;;;;;31.00;70.50;;;;;;5105517;28;19922;-69
2023/06/20 12:50:03;;;;;;;;;;;30.20;69.80;;;;;;5099654;28;19919;-70
2023/06/20 12:52:29;;;;;;;;;;;29.40;69.40;;;;;;5100429;28;20347;-69
2023/06/20 12:54:57;;;;;;;;;;;29.00;70.00;;;;;;5101784;28;19914;-70
2023/06/20 12:57:25;;;;;;;;;;;28.50;69.50;;;;;;5099407;28;19999;-70
2023/06/20 12:59:51;;;;;;;;;;;27.90;69.40;;;;;;5099722;28;19918;-69
2023/06/20 13:02:19;;;;;;;;;;;27.40;69.50;;;;;;5098377;28;19977;-72
2023/06/20 13:04:44;;;;;;;;;;;27.20;70.40;;;;;;5102430;28;19920;-70
2023/06/20 13:07:11;;;;;;;;;;;27.50;70.80;;;;;;5102176;28;20437;-70
2023/06/20 13:09:38;;;;;;;;;;;27.80;70.80;;;;;;5099466;28;19920;-70
2023/06/20 13:12:04;;;;;;;;;;;27.90;70.10;;;;;;5099255;28;19908;-71
2023/06/20 13:14:29;;;;;;;;;;;27.80;69.80;;;;;;5100282;28;20367;-71
2023/06/20 13:16:58;;;;;;;;;;;27.80;69.90;;;;;;5103045;28;19964;-72
2023/06/20 13:19:23;;;;;;;;;;;27.70;69.80;;;;;;5105217;28;19923;-71
2023/06/20 13:21:49;;;;;;;;;;;27.50;69.90;;;;;;5100428;28;19911;-71
2023/06/20 13:24:15;;;;;;;;;;;27.30;69.60;;;;;;5100556;28;19913;-71
2023/06/20 13:26:40;;;;;;;;;;;27.20;69.60;;;;;;5098186;28;20296;-70
2023/06/20 13:29:06;;;;;;;;;;;27.20;69.80;;;;;;5099507;28;19935;-70
2023/06/20 13:31:32;;;;;;;;;;;27.20;69.60;;;;;;5099446;28;19923;-70
2023/06/20 13:33:58;;;;;;;;;;;27.00;69.50;;;;;;5097130;28;20341;-70
2023/06/20 13:36:24;;;;;;;;;;;26.60;69.70;;;;;;5100892;28;19952;-70
2023/06/20 13:38:50;;;;;;;;;;;26.40;70.10;;;;;;5099341;28;19999;-70
2023/06/20 13:41:16;;;;;;;;;;;26.30;70.10;;;;;;5097326;28;19919;-70
2023/06/20 13:43:41;;;;;;;;;;;26.10;70.10;;;;;;5099368;28;19922;-70
2023/06/20 13:46:07;;;;;;;;;;;26.00;70.20;;;;;;5097702;28;20524;-71
2023/06/20 13:48:32;;;;;;;;;;;25.80;69.80;;;;;;5097716;28;19945;-70
2023/06/20 13:51:00;;;;;;;;;;;25.70;69.50;;;;;;5098941;28;19918;-70
2023/06/20 13:53:26;;;;;;;;;;;25.70;69.30;;;;;;5096029;28;19912;-70
2023/06/20 13:55:52;;;;;;;;;;;25.70;69.10;;;;;;5100745;28;19912;-70
2023/06/20 13:58:17;;;;;;;;;;;25.70;69.00;;;;;;5094911;28;20297;-70
2023/06/20 14:00:43;;;;;;;;;;;25.70;68.70;;;;;;5092020;28;19912;-71
2023/06/20 14:03:09;;;;;;;;;;;25.40;68.10;;;;;;5089604;28;19973;-74
2023/06/20 14:05:34;;;;;;;;;;;25.00;68.10;;;;;;5088317;28;19935;-72
2023/06/20 14:08:00;;;;;;;;;;;24.60;68.10;;;;;;5088380;28;19912;-72
2023/06/20 14:10:25;;;;;;;;;;;24.40;68.30;;;;;;5087901;28;19912;-70
2023/06/20 14:12:51;;;;;;;;;;;24.20;68.40;;;;;;5089460;28;19916;-70